logo
Rechercher aéroport 
image banner adimage banner adimage banner ad
image banner ad

KCDA - Caledonia County

Situé à Lyndonville, United States

ICAO - CDA, IATA - LLX

Données fournies par Airmate  

Information générale

Coordonnées: N44°34'9" W72°1'5"
Élévation : 1187 feet MSL.
Variation magnétique : -16° East
Voir autres Aéroports à Vermont

Données opérationnelles

Special qualification required
Heure actuelle UTC:
Heure actuelle locale:
Météo
METAR: KCDA 201215Z AUTO 13005KT 2 1/2SM BR OVC002 12/12 A3008 RMK AO2 T01210115
Voir NOTAMs / SUP AIP / TFR affectant cet aéroport [VIEW]
Fréquences de communication: [VIEW]

Pistes:

Identifiant RWYQFULongueur (ft)Largeur (ft)SurfaceLDA (ft)
02330260ASPH
20188°330260ASPH

Coordonnées de l'aéroport

Adresse: Lyndonville United States

Vue satellite de KCDA